createdAt,value
2019-05-30T00:00:08.891Z,13.33
2019-05-30T00:00:53.789Z,13.36
2019-05-30T00:01:52.471Z,13.39
2019-05-30T00:02:52.450Z,13.41
2019-05-30T00:03:52.433Z,13.38
2019-05-30T00:04:52.413Z,13.38
2019-05-30T00:05:52.408Z,13.42
2019-05-30T00:06:52.370Z,13.38
2019-05-30T00:07:52.351Z,13.52
2019-05-30T00:08:52.332Z,13.38
2019-05-30T00:09:52.315Z,13.36
2019-05-30T00:10:52.302Z,13.36
2019-05-30T00:11:52.282Z,13.36
2019-05-30T00:12:52.261Z,13.32
2019-05-30T00:13:52.240Z,13.28
2019-05-30T00:14:52.219Z,13.32
2019-05-30T00:15:52.216Z,13.30
2019-05-30T00:16:52.177Z,13.42
2019-05-30T00:17:52.157Z,13.33
2019-05-30T00:18:52.137Z,13.30
2019-05-30T00:19:52.115Z,13.39
2019-05-30T00:20:52.098Z,13.33
2019-05-30T00:21:52.083Z,13.39
2019-05-30T00:22:52.060Z,13.36
2019-05-30T00:23:52.042Z,13.41
2019-05-30T00:24:52.026Z,13.39
2019-05-30T00:25:52.000Z,13.36
2019-05-30T00:26:51.976Z,13.41
2019-05-30T00:27:51.976Z,13.44
2019-05-30T00:28:51.944Z,13.38
2019-05-30T00:29:51.919Z,13.36
2019-05-30T00:30:51.898Z,13.39
2019-05-30T00:31:51.879Z,13.39
2019-05-30T00:32:51.861Z,13.36
2019-05-30T00:33:51.839Z,13.38
2019-05-30T00:34:51.820Z,13.38
2019-05-30T00:35:51.801Z,13.36
2019-05-30T00:36:51.781Z,13.36
2019-05-30T00:37:51.765Z,13.33
2019-05-30T00:38:51.741Z,13.38
2019-05-30T00:39:51.725Z,13.33
2019-05-30T00:40:51.702Z,13.33
2019-05-30T00:41:51.683Z,13.41
2019-05-30T00:42:51.741Z,13.46
2019-05-30T00:43:51.649Z,13.41
2019-05-30T00:44:51.632Z,13.42
2019-05-30T00:45:51.605Z,13.39
2019-05-30T00:46:51.584Z,13.42
2019-05-30T00:47:51.566Z,13.41
2019-05-30T00:48:51.591Z,13.42
2019-05-30T00:49:51.586Z,13.42
2019-05-30T00:50:51.510Z,13.41
2019-05-30T00:51:51.490Z,13.45
2019-05-30T00:52:51.472Z,13.48
2019-05-30T00:53:51.446Z,13.44
2019-05-30T00:54:51.426Z,13.44
2019-05-30T00:55:51.408Z,13.48
2019-05-30T00:56:51.387Z,13.45
2019-05-30T00:57:51.376Z,13.62
2019-05-30T00:58:51.351Z,13.46
2019-05-30T00:59:51.332Z,13.62
2019-05-30T01:00:51.327Z,13.59
2019-05-30T01:01:51.290Z,13.60
2019-05-30T01:02:51.297Z,13.54
2019-05-30T01:03:51.250Z,13.62
2019-05-30T01:04:51.230Z,13.57
2019-05-30T01:05:51.216Z,13.52
2019-05-30T01:06:51.191Z,13.57
2019-05-30T01:07:51.171Z,13.59
2019-05-30T01:08:51.166Z,13.54
2019-05-30T01:09:51.133Z,13.54
2019-05-30T01:10:51.110Z,13.60
2019-05-30T01:11:51.093Z,13.52
2019-05-30T01:12:51.072Z,13.62
2019-05-30T01:13:51.057Z,13.55
2019-05-30T01:14:51.034Z,13.54
2019-05-30T01:15:51.024Z,13.54
2019-05-30T01:16:51.002Z,13.62
2019-05-30T01:17:50.973Z,13.63
2019-05-30T01:18:50.977Z,13.59
2019-05-30T01:19:50.944Z,13.59
2019-05-30T01:20:50.917Z,13.42
2019-05-30T01:21:50.898Z,13.42
2019-05-30T01:22:50.875Z,13.42
2019-05-30T01:23:50.860Z,13.42
2019-05-30T01:24:50.851Z,13.38
2019-05-30T01:25:50.818Z,13.45
2019-05-30T01:26:50.826Z,13.42
2019-05-30T01:27:50.778Z,13.46
2019-05-30T01:28:50.759Z,13.45
2019-05-30T01:29:50.739Z,13.44
2019-05-30T01:30:59.542Z,13.45
2019-05-30T01:31:50.699Z,13.45
2019-05-30T01:32:50.687Z,13.44
2019-05-30T01:33:50.667Z,13.44
2019-05-30T01:34:50.639Z,13.48
2019-05-30T01:35:50.621Z,13.46
2019-05-30T01:36:50.603Z,13.59
2019-05-30T01:37:50.583Z,13.57
2019-05-30T01:38:50.565Z,13.52
2019-05-30T01:39:50.541Z,13.45
2019-05-30T01:40:50.522Z,13.51
2019-05-30T01:41:50.503Z,13.48
2019-05-30T01:42:50.482Z,13.46
2019-05-30T01:43:50.465Z,13.54
2019-05-30T01:44:50.449Z,13.52
2019-05-30T01:45:50.424Z,13.54
2019-05-30T01:46:50.405Z,13.54
2019-05-30T01:47:50.385Z,13.57
2019-05-30T01:48:50.365Z,13.57
2019-05-30T01:49:50.347Z,13.64
2019-05-30T01:50:50.326Z,13.60
2019-05-30T01:51:50.306Z,13.55
2019-05-30T01:52:50.286Z,13.66
2019-05-30T01:53:50.271Z,13.63
2019-05-30T01:54:50.245Z,13.73
2019-05-30T01:55:50.226Z,13.62
2019-05-30T01:56:50.208Z,13.71
2019-05-30T01:57:50.185Z,13.75
2019-05-30T01:58:50.168Z,13.66
2019-05-30T01:59:50.151Z,13.67
2019-05-30T02:00:50.129Z,13.73
2019-05-30T02:01:50.108Z,13.75
2019-05-30T02:02:50.087Z,13.77
2019-05-30T02:03:50.074Z,13.73
2019-05-30T02:04:50.049Z,13.73
2019-05-30T02:05:50.034Z,13.73
2019-05-30T02:06:50.009Z,13.70
2019-05-30T02:07:49.999Z,13.79
2019-05-30T02:08:49.970Z,13.77
2019-05-30T02:09:49.952Z,13.69
2019-05-30T02:10:49.936Z,13.75
2019-05-30T02:11:49.913Z,13.75
2019-05-30T02:12:49.892Z,13.82
2019-05-30T02:13:49.886Z,13.81
2019-05-30T02:14:49.857Z,13.87
2019-05-30T02:15:49.834Z,13.78
2019-05-30T02:16:49.818Z,13.79
2019-05-30T02:17:49.799Z,13.67
2019-05-30T02:18:49.774Z,13.70
2019-05-30T02:19:49.755Z,13.82
2019-05-30T02:20:49.735Z,13.71
2019-05-30T02:21:49.717Z,13.75
2019-05-30T02:22:49.703Z,13.73
2019-05-30T02:23:49.675Z,13.89
2019-05-30T02:24:49.658Z,13.87
2019-05-30T02:25:49.639Z,13.79
2019-05-30T02:26:49.614Z,13.85
2019-05-30T02:27:49.598Z,13.77
2019-05-30T02:28:49.578Z,13.82
2019-05-30T02:29:49.559Z,13.85
2019-05-30T02:30:49.539Z,13.87
2019-05-30T02:31:49.518Z,13.79
2019-05-30T02:32:49.515Z,13.84
2019-05-30T02:33:49.483Z,13.84
2019-05-30T02:34:49.458Z,13.82
2019-05-30T02:35:49.438Z,13.85
2019-05-30T02:36:49.427Z,13.91
2019-05-30T02:37:49.398Z,13.78
2019-05-30T02:38:49.380Z,13.85
2019-05-30T02:39:49.361Z,13.82
2019-05-30T02:40:49.340Z,13.85
2019-05-30T02:41:49.323Z,13.79
2019-05-30T02:42:49.301Z,13.78
2019-05-30T02:43:49.281Z,13.70
2019-05-30T02:44:49.262Z,13.81
2019-05-30T02:45:49.243Z,13.84
2019-05-30T02:46:49.225Z,13.79
2019-05-30T02:47:49.202Z,13.87
2019-05-30T02:48:58.728Z,13.88
2019-05-30T02:49:49.165Z,13.85
2019-05-30T02:50:49.143Z,13.82
2019-05-30T02:51:49.122Z,13.78
2019-05-30T02:52:49.115Z,13.79
2019-05-30T02:53:49.103Z,13.82
2019-05-30T02:54:49.074Z,13.85
2019-05-30T02:55:49.047Z,13.85
2019-05-30T02:56:49.037Z,13.84
2019-05-30T02:57:49.009Z,13.85
2019-05-30T02:58:48.990Z,13.89
2019-05-30T02:59:48.967Z,13.82
2019-05-30T03:00:48.947Z,13.81
2019-05-30T03:02:00.640Z,13.82
2019-05-30T03:02:48.909Z,13.71
2019-05-30T03:03:48.887Z,13.78
2019-05-30T03:04:48.874Z,13.87
2019-05-30T03:05:48.853Z,13.79
2019-05-30T03:06:48.829Z,13.84
2019-05-30T03:07:48.805Z,13.89
2019-05-30T03:08:48.788Z,13.81
2019-05-30T03:09:48.768Z,13.84
2019-05-30T03:10:48.748Z,13.84
2019-05-30T03:11:48.732Z,13.87
2019-05-30T03:12:48.721Z,13.79
2019-05-30T03:13:48.690Z,13.84
2019-05-30T03:14:48.693Z,13.87
2019-05-30T03:15:48.648Z,13.92
2019-05-30T03:16:48.629Z,13.82
2019-05-30T03:17:48.612Z,13.89
2019-05-30T03:18:48.589Z,13.92
2019-05-30T03:19:48.570Z,13.96
2019-05-30T03:20:48.551Z,13.88
2019-05-30T03:21:48.535Z,13.96
2019-05-30T03:22:48.512Z,13.95
2019-05-30T03:23:48.493Z,13.96
2019-05-30T03:24:48.472Z,13.92
2019-05-30T03:25:48.453Z,13.96
2019-05-30T03:26:48.439Z,13.97
2019-05-30T03:27:48.413Z,13.99
2019-05-30T03:28:53.101Z,13.92
2019-05-30T03:29:48.383Z,13.97
2019-05-30T03:30:48.358Z,13.99
2019-05-30T03:31:48.333Z,13.97
2019-05-30T03:33:05.158Z,14.03
2019-05-30T03:33:48.301Z,14.06
2019-05-30T03:34:48.281Z,14.12
2019-05-30T03:35:48.264Z,14.03
2019-05-30T03:36:48.252Z,14.12
2019-05-30T03:37:48.233Z,14.04
2019-05-30T03:38:48.196Z,14.06
2019-05-30T03:39:48.176Z,14.12
2019-05-30T03:40:48.156Z,14.07
2019-05-30T03:41:48.169Z,14.12
2019-05-30T03:42:48.125Z,14.20
2019-05-30T03:43:48.099Z,14.12
2019-05-30T03:44:48.077Z,14.18
2019-05-30T03:45:48.067Z,14.22
2019-05-30T03:46:48.036Z,14.28
2019-05-30T03:47:48.019Z,14.18
2019-05-30T03:48:47.998Z,14.22
2019-05-30T03:49:47.979Z,14.18
2019-05-30T03:50:47.962Z,14.24
2019-05-30T03:51:47.940Z,14.21
2019-05-30T03:52:47.928Z,14.24
2019-05-30T03:53:47.899Z,14.21
2019-05-30T03:54:47.881Z,14.24
2019-05-30T03:55:47.867Z,14.20
2019-05-30T03:56:47.854Z,14.21
2019-05-30T03:57:47.821Z,14.20
2019-05-30T03:58:47.809Z,14.33
2019-05-30T03:59:47.786Z,14.21
2019-05-30T04:00:50.947Z,14.20
2019-05-30T04:01:47.743Z,14.20
2019-05-30T04:02:57.348Z,14.25
2019-05-30T04:03:47.701Z,14.39
2019-05-30T04:04:47.687Z,14.32
2019-05-30T04:05:47.665Z,14.33
2019-05-30T04:06:47.646Z,14.35
2019-05-30T04:07:47.625Z,14.22
2019-05-30T04:08:47.612Z,14.27
2019-05-30T04:09:47.601Z,14.36
2019-05-30T04:10:47.574Z,14.37
2019-05-30T04:11:47.547Z,14.27
2019-05-30T04:12:47.528Z,14.29
2019-05-30T04:13:47.509Z,14.37
2019-05-30T04:14:47.487Z,14.33
2019-05-30T04:15:47.469Z,14.35
2019-05-30T04:16:47.447Z,14.25
2019-05-30T04:17:47.428Z,14.33
2019-05-30T04:18:47.427Z,14.29
2019-05-30T04:19:47.390Z,14.32
2019-05-30T04:20:47.374Z,14.40
2019-05-30T04:21:47.352Z,14.35
2019-05-30T04:22:47.339Z,14.40
2019-05-30T04:23:47.311Z,14.37
2019-05-30T04:24:47.290Z,14.46
2019-05-30T04:25:47.269Z,14.42
2019-05-30T04:26:47.249Z,14.42
2019-05-30T04:27:47.242Z,14.32
2019-05-30T04:28:47.217Z,14.40
2019-05-30T04:29:47.191Z,14.45
2019-05-30T04:30:47.181Z,14.50
2019-05-30T04:31:47.151Z,14.46
2019-05-30T04:32:47.132Z,14.40
2019-05-30T04:33:47.117Z,14.40
2019-05-30T04:34:47.092Z,14.42
2019-05-30T04:35:47.070Z,14.42
2019-05-30T04:36:47.053Z,14.47
2019-05-30T04:37:47.034Z,14.58
2019-05-30T04:38:47.013Z,14.58
2019-05-30T04:39:47.008Z,14.55
2019-05-30T04:40:46.977Z,14.54
2019-05-30T04:41:46.956Z,14.51
2019-05-30T04:42:46.946Z,14.50
2019-05-30T04:43:46.914Z,14.60
2019-05-30T04:44:46.921Z,14.62
2019-05-30T04:45:46.877Z,14.58
2019-05-30T04:46:46.860Z,14.62
2019-05-30T04:47:46.839Z,14.54
2019-05-30T04:48:46.820Z,14.68
2019-05-30T04:49:46.801Z,14.54
2019-05-30T04:50:46.781Z,14.68
2019-05-30T04:51:46.759Z,14.57
2019-05-30T04:52:46.745Z,14.61
2019-05-30T04:53:46.722Z,14.61
2019-05-30T04:54:46.700Z,14.69
2019-05-30T04:55:46.684Z,14.69
2019-05-30T04:56:46.656Z,14.58
2019-05-30T04:57:46.639Z,14.69
2019-05-30T04:58:46.623Z,14.70
2019-05-30T04:59:46.598Z,14.69
2019-05-30T05:00:46.580Z,14.68
2019-05-30T05:01:46.564Z,14.81
2019-05-30T05:02:46.539Z,14.78
2019-05-30T05:03:47.050Z,14.72
2019-05-30T05:04:46.507Z,14.72
2019-05-30T05:05:46.485Z,14.80
2019-05-30T05:06:46.462Z,14.88
2019-05-30T05:07:46.443Z,14.88
2019-05-30T05:08:46.422Z,14.81
2019-05-30T05:09:46.408Z,14.89
2019-05-30T05:10:46.399Z,14.92
2019-05-30T05:11:46.363Z,14.88
2019-05-30T05:12:46.343Z,14.88
2019-05-30T05:13:46.325Z,14.94
2019-05-30T05:14:46.303Z,14.91
2019-05-30T05:15:46.293Z,14.84
2019-05-30T05:16:46.271Z,14.91
2019-05-30T05:17:46.264Z,14.92
2019-05-30T05:18:46.228Z,14.92
2019-05-30T05:19:46.215Z,14.94
2019-05-30T05:20:46.192Z,14.92
2019-05-30T05:21:46.167Z,14.95
2019-05-30T05:22:46.149Z,14.95
2019-05-30T05:23:46.131Z,14.92
2019-05-30T05:24:46.108Z,14.98
2019-05-30T05:25:59.716Z,14.99
2019-05-30T05:26:46.074Z,15.02
2019-05-30T05:27:46.057Z,14.99
2019-05-30T05:28:46.032Z,15.01
2019-05-30T05:29:46.015Z,14.89
2019-05-30T05:30:45.993Z,15.03
2019-05-30T05:31:45.972Z,15.01
2019-05-30T05:32:45.956Z,15.03
2019-05-30T05:33:56.350Z,15.03
2019-05-30T05:34:45.913Z,15.03
2019-05-30T05:35:45.891Z,15.02
2019-05-30T05:36:45.872Z,15.02
2019-05-30T05:37:45.854Z,15.02
2019-05-30T05:38:45.830Z,15.09
2019-05-30T05:39:45.812Z,15.17
2019-05-30T05:40:45.792Z,15.11
2019-05-30T05:41:45.774Z,15.01
2019-05-30T05:42:45.760Z,15.16
2019-05-30T05:43:45.736Z,15.03
2019-05-30T05:44:45.723Z,15.11
2019-05-30T05:45:45.698Z,15.11
2019-05-30T05:46:45.673Z,15.07
2019-05-30T05:47:45.656Z,15.19
2019-05-30T05:48:45.637Z,15.19
2019-05-30T05:49:45.624Z,15.17
2019-05-30T05:50:45.604Z,15.14
2019-05-30T05:51:45.580Z,15.23
2019-05-30T05:52:45.557Z,15.21
2019-05-30T05:53:45.545Z,15.19
2019-05-30T05:54:45.518Z,15.19
2019-05-30T05:55:45.498Z,15.21
2019-05-30T05:56:45.478Z,15.23
2019-05-30T05:57:45.463Z,15.28
2019-05-30T05:58:45.440Z,15.29
2019-05-30T05:59:45.420Z,15.29
2019-05-30T06:00:45.401Z,15.29
2019-05-30T06:01:45.385Z,15.34
2019-05-30T06:02:45.364Z,15.36
2019-05-30T06:03:45.341Z,15.36
2019-05-30T06:04:45.325Z,15.39
2019-05-30T06:05:53.059Z,15.39
2019-05-30T06:06:45.291Z,15.34
2019-05-30T06:07:45.264Z,15.39
2019-05-30T06:08:45.244Z,15.35
2019-05-30T06:09:45.228Z,15.34
2019-05-30T06:10:45.204Z,15.38
2019-05-30T06:11:45.194Z,15.23
2019-05-30T06:12:45.167Z,15.31
2019-05-30T06:13:45.148Z,15.38
2019-05-30T06:14:45.138Z,15.27
2019-05-30T06:15:45.109Z,15.34
2019-05-30T06:16:45.096Z,15.25
2019-05-30T06:17:45.068Z,15.35
2019-05-30T06:18:45.054Z,15.29
2019-05-30T06:19:46.709Z,15.28
2019-05-30T06:20:45.022Z,15.38
2019-05-30T06:21:53.445Z,15.31
2019-05-30T06:22:44.975Z,15.35
2019-05-30T06:23:46.059Z,15.38
2019-05-30T06:24:44.931Z,15.43
2019-05-30T06:25:44.917Z,15.36
2019-05-30T06:26:44.895Z,15.39
2019-05-30T06:27:44.885Z,15.41
2019-05-30T06:28:44.864Z,15.44
2019-05-30T06:29:44.840Z,15.41
2019-05-30T06:30:44.813Z,15.47
2019-05-30T06:31:44.798Z,15.46
2019-05-30T06:32:44.778Z,15.54
2019-05-30T06:33:44.759Z,15.51
2019-05-30T06:34:44.733Z,15.44
2019-05-30T06:35:44.716Z,15.64
2019-05-30T06:36:44.703Z,15.50
2019-05-30T06:37:44.677Z,15.56
2019-05-30T06:38:44.659Z,15.56
2019-05-30T06:39:44.648Z,15.60
2019-05-30T06:40:44.627Z,15.56
2019-05-30T06:41:44.597Z,15.60
2019-05-30T06:42:44.582Z,15.54
2019-05-30T06:43:44.569Z,15.62
2019-05-30T06:44:44.544Z,15.57
2019-05-30T06:45:44.536Z,15.64
2019-05-30T06:46:44.502Z,15.64
2019-05-30T06:47:44.488Z,15.59
2019-05-30T06:48:44.465Z,15.72
2019-05-30T06:49:44.444Z,15.67
2019-05-30T06:50:44.423Z,15.68
2019-05-30T06:51:44.403Z,15.65
2019-05-30T06:52:44.391Z,15.65
2019-05-30T06:53:44.368Z,15.75
2019-05-30T06:54:44.353Z,15.71
2019-05-30T06:55:44.327Z,15.68
2019-05-30T06:56:44.903Z,15.71
2019-05-30T06:57:44.286Z,15.72
2019-05-30T06:58:48.730Z,15.69
2019-05-30T06:59:44.249Z,15.76
2019-05-30T07:00:44.248Z,15.80
2019-05-30T07:01:44.208Z,15.82
2019-05-30T07:02:44.237Z,15.84
2019-05-30T07:03:44.256Z,15.83
2019-05-30T07:04:51.686Z,15.82
2019-05-30T07:05:44.639Z,15.86
2019-05-30T07:06:44.336Z,15.89
2019-05-30T07:07:44.259Z,15.94
2019-05-30T07:08:44.072Z,16.01
2019-05-30T07:09:44.071Z,15.94
2019-05-30T07:10:44.035Z,15.96
2019-05-30T07:11:44.013Z,15.94
2019-05-30T07:12:43.995Z,16.00
2019-05-30T07:13:43.975Z,15.93
2019-05-30T07:14:43.955Z,15.97
2019-05-30T07:15:43.936Z,16.01
2019-05-30T07:16:43.922Z,16.01
2019-05-30T07:17:43.898Z,16.08
2019-05-30T07:18:43.884Z,16.11
2019-05-30T07:19:43.862Z,16.09
2019-05-30T07:20:43.846Z,16.02
2019-05-30T07:21:43.819Z,16.09
2019-05-30T07:22:43.806Z,16.09
2019-05-30T07:23:43.781Z,16.05
2019-05-30T07:24:43.770Z,16.08
2019-05-30T07:25:43.754Z,16.08
2019-05-30T07:26:43.729Z,16.12
2019-05-30T07:27:43.709Z,16.12
2019-05-30T07:28:43.698Z,16.09
2019-05-30T07:29:43.665Z,16.11
2019-05-30T07:30:43.650Z,16.09
2019-05-30T07:31:43.625Z,16.04
2019-05-30T07:32:43.605Z,16.07
2019-05-30T07:33:43.590Z,16.07
2019-05-30T07:34:45.860Z,16.04
2019-05-30T07:35:43.553Z,16.01
2019-05-30T07:36:43.530Z,15.96
2019-05-30T07:37:46.594Z,16.05
2019-05-30T07:38:43.492Z,15.94
2019-05-30T07:39:43.477Z,16.07
2019-05-30T07:40:43.453Z,16.00
2019-05-30T07:41:43.434Z,16.02
2019-05-30T07:42:43.416Z,16.11
2019-05-30T07:43:43.406Z,16.12
2019-05-30T07:44:43.374Z,16.07
2019-05-30T07:45:48.653Z,16.21
2019-05-30T07:46:43.336Z,16.12
2019-05-30T07:47:43.316Z,16.30
2019-05-30T07:48:43.298Z,16.33
2019-05-30T07:49:43.291Z,16.42
2019-05-30T07:50:43.261Z,16.46
2019-05-30T07:51:43.239Z,16.49
2019-05-30T07:52:43.230Z,16.48
2019-05-30T07:53:43.205Z,16.52
2019-05-30T07:54:43.194Z,16.57
2019-05-30T07:55:43.163Z,16.61
2019-05-30T07:56:43.149Z,16.68
2019-05-30T07:57:43.138Z,16.66
2019-05-30T07:58:43.106Z,16.71
2019-05-30T07:59:43.086Z,16.68
2019-05-30T08:00:43.065Z,16.82
2019-05-30T08:01:43.071Z,16.75
2019-05-30T08:02:43.025Z,16.85
2019-05-30T08:03:43.025Z,16.86
2019-05-30T08:04:46.627Z,16.79
2019-05-30T08:05:42.971Z,16.79
2019-05-30T08:06:42.954Z,16.81
2019-05-30T08:07:42.932Z,16.67
2019-05-30T08:08:42.914Z,16.67
2019-05-30T08:09:42.902Z,16.64
2019-05-30T08:10:42.877Z,16.56
2019-05-30T08:11:42.880Z,16.60
2019-05-30T08:12:42.837Z,16.58
2019-05-30T08:13:42.819Z,16.50
2019-05-30T08:14:42.803Z,16.43
2019-05-30T08:15:43.999Z,16.49
2019-05-30T08:16:42.762Z,16.45
2019-05-30T08:17:44.409Z,16.49
2019-05-30T08:18:42.728Z,16.42
2019-05-30T08:19:42.716Z,16.61
2019-05-30T08:20:42.705Z,16.53
2019-05-30T08:21:42.669Z,16.52
2019-05-30T08:22:42.647Z,16.66
2019-05-30T08:23:42.639Z,16.68
2019-05-30T08:24:42.620Z,16.61
2019-05-30T08:25:42.592Z,16.66
2019-05-30T08:26:42.582Z,16.71
2019-05-30T08:27:42.560Z,16.68
2019-05-30T08:28:42.834Z,16.75
2019-05-30T08:29:42.520Z,16.83
2019-05-30T08:30:42.499Z,16.82
2019-05-30T08:31:42.475Z,16.82
2019-05-30T08:32:42.457Z,16.79
2019-05-30T08:33:42.442Z,16.85
2019-05-30T08:34:42.426Z,16.76
2019-05-30T08:35:49.605Z,16.73
2019-05-30T08:36:42.386Z,16.71
2019-05-30T08:37:42.368Z,16.66
2019-05-30T08:38:42.343Z,16.70
2019-05-30T08:39:42.320Z,16.63
2019-05-30T08:40:42.304Z,16.57
2019-05-30T08:41:42.281Z,16.56
2019-05-30T08:42:42.261Z,16.64
2019-05-30T08:43:42.250Z,16.61
2019-05-30T08:44:42.231Z,16.61
2019-05-30T08:45:42.216Z,16.53
2019-05-30T08:46:42.198Z,16.66
2019-05-30T08:47:42.173Z,16.64
2019-05-30T08:48:42.165Z,16.67
2019-05-30T08:49:42.131Z,16.68
2019-05-30T08:50:44.616Z,16.79
2019-05-30T08:51:42.105Z,16.83
2019-05-30T08:52:42.073Z,16.91
2019-05-30T08:53:42.056Z,16.88
2019-05-30T08:54:42.043Z,16.79
2019-05-30T08:55:42.028Z,16.82
2019-05-30T08:56:42.018Z,16.83
2019-05-30T08:57:42.004Z,16.71
2019-05-30T08:58:41.957Z,16.75
2019-05-30T08:59:44.781Z,16.68
2019-05-30T09:00:41.931Z,16.64
2019-05-30T09:01:42.226Z,16.63
2019-05-30T09:02:42.889Z,16.58
2019-05-30T09:03:42.182Z,16.56
2019-05-30T09:04:42.015Z,16.61
2019-05-30T09:05:58.188Z,16.57
2019-05-30T09:06:42.085Z,16.66
2019-05-30T09:07:42.923Z,16.64
2019-05-30T09:08:42.149Z,16.53
2019-05-30T09:09:42.246Z,16.66
2019-05-30T09:10:42.630Z,16.60
2019-05-30T09:11:42.351Z,16.70
2019-05-30T09:12:45.197Z,16.66
2019-05-30T09:13:42.630Z,16.63
2019-05-30T09:14:42.859Z,16.52
2019-05-30T09:15:42.896Z,16.53
2019-05-30T09:16:41.626Z,16.49
2019-05-30T09:17:42.582Z,16.50
2019-05-30T09:18:41.667Z,16.52
2019-05-30T09:19:41.568Z,16.49
2019-05-30T09:20:42.023Z,16.45
2019-05-30T09:21:41.552Z,16.46
2019-05-30T09:22:41.946Z,16.45
2019-05-30T09:23:42.242Z,16.46
2019-05-30T09:24:42.104Z,16.48
2019-05-30T09:25:41.607Z,16.48
2019-05-30T09:26:45.231Z,16.42
2019-05-30T09:27:42.777Z,16.49
2019-05-30T09:28:42.218Z,16.46
2019-05-30T09:29:42.740Z,16.49
2019-05-30T09:30:42.795Z,16.43
2019-05-30T09:31:42.735Z,16.49
2019-05-30T09:32:43.012Z,16.42
2019-05-30T09:33:42.640Z,16.38
2019-05-30T09:34:42.053Z,16.39
2019-05-30T09:35:41.526Z,16.42
2019-05-30T09:36:41.245Z,16.28
2019-05-30T09:37:41.882Z,16.28
2019-05-30T09:38:41.795Z,16.34
2019-05-30T09:39:41.543Z,16.43
2019-05-30T09:40:42.079Z,16.33
2019-05-30T09:41:42.187Z,16.33
2019-05-30T09:42:42.640Z,16.34
2019-05-30T09:43:42.552Z,16.34
2019-05-30T09:44:42.230Z,16.41
2019-05-30T09:45:42.299Z,16.34
2019-05-30T09:46:42.476Z,16.38
2019-05-30T09:47:43.016Z,16.30
2019-05-30T09:48:42.045Z,16.33
2019-05-30T09:49:41.888Z,16.30
2019-05-30T09:50:42.199Z,16.27
2019-05-30T09:51:42.534Z,16.21
2019-05-30T09:52:42.179Z,16.27
2019-05-30T09:53:41.061Z,16.28
2019-05-30T09:54:41.167Z,16.27
2019-05-30T09:55:41.322Z,16.24
2019-05-30T09:56:42.037Z,16.30
2019-05-30T09:57:42.334Z,16.27
2019-05-30T09:58:42.215Z,16.25
2019-05-30T09:59:41.586Z,16.28
2019-05-30T10:00:42.829Z,16.41
2019-05-30T10:01:42.605Z,16.38
2019-05-30T10:02:42.955Z,16.50
2019-05-30T10:03:43.034Z,16.41
2019-05-30T10:04:42.066Z,16.46
2019-05-30T10:05:40.677Z,16.53
2019-05-30T10:06:40.657Z,16.45
2019-05-30T10:07:40.640Z,16.57
2019-05-30T10:08:40.618Z,16.49
2019-05-30T10:09:40.599Z,16.49
2019-05-30T10:10:40.580Z,16.52
2019-05-30T10:11:40.568Z,16.45
2019-05-30T10:12:40.542Z,16.48
2019-05-30T10:13:40.538Z,16.46
2019-05-30T10:14:40.503Z,16.46
2019-05-30T10:15:40.497Z,16.43
2019-05-30T10:16:40.479Z,16.56
2019-05-30T10:17:40.459Z,16.56
2019-05-30T10:18:40.432Z,16.60
2019-05-30T10:19:40.416Z,16.64
2019-05-30T10:20:40.393Z,16.57
2019-05-30T10:21:40.372Z,16.66
2019-05-30T10:22:40.361Z,16.63
2019-05-30T10:23:40.337Z,16.71
2019-05-30T10:24:43.000Z,16.68
2019-05-30T10:25:40.299Z,16.66
2019-05-30T10:26:40.278Z,16.73
2019-05-30T10:27:40.271Z,16.71
2019-05-30T10:28:40.239Z,16.75
2019-05-30T10:29:40.222Z,16.70
2019-05-30T10:30:40.205Z,16.71
2019-05-30T10:31:40.194Z,16.76
2019-05-30T10:32:40.173Z,16.79
2019-05-30T10:33:40.161Z,16.79
2019-05-30T10:34:40.126Z,16.70
2019-05-30T10:35:40.120Z,16.68
2019-05-30T10:36:44.224Z,16.82
2019-05-30T10:37:40.067Z,16.82
2019-05-30T10:38:40.057Z,16.89
2019-05-30T10:39:40.039Z,16.94
2019-05-30T10:40:40.014Z,17.04
2019-05-30T10:41:39.993Z,17.07
2019-05-30T10:42:39.972Z,17.19
2019-05-30T10:43:39.949Z,17.25
2019-05-30T10:44:39.947Z,17.23
2019-05-30T10:45:39.917Z,17.31
2019-05-30T10:46:39.893Z,17.36
2019-05-30T10:47:39.878Z,17.38
2019-05-30T10:48:39.868Z,17.40
2019-05-30T10:49:39.851Z,17.37
2019-05-30T10:50:39.818Z,17.33
2019-05-30T10:51:39.821Z,17.28
2019-05-30T10:52:39.785Z,17.37
2019-05-30T10:53:39.775Z,17.36
2019-05-30T10:54:39.749Z,17.40
2019-05-30T10:55:39.725Z,17.34
2019-05-30T10:56:39.709Z,17.36
2019-05-30T10:57:39.696Z,17.46
2019-05-30T10:58:39.673Z,17.43
2019-05-30T10:59:39.653Z,17.40
2019-05-30T11:00:39.638Z,17.43
2019-05-30T11:01:39.632Z,17.49
2019-05-30T11:02:39.605Z,17.40
2019-05-30T11:03:39.576Z,17.56
2019-05-30T11:04:39.563Z,17.40
2019-05-30T11:05:39.546Z,17.43
2019-05-30T11:06:39.522Z,17.41
2019-05-30T11:07:53.036Z,17.49
2019-05-30T11:08:39.485Z,17.48
2019-05-30T11:09:39.470Z,17.46
2019-05-30T11:10:39.454Z,17.38
2019-05-30T11:11:39.434Z,17.41
2019-05-30T11:12:39.416Z,17.44
2019-05-30T11:13:39.408Z,17.38
2019-05-30T11:14:39.374Z,17.49
2019-05-30T11:15:39.350Z,17.40
2019-05-30T11:16:39.332Z,17.48
2019-05-30T11:17:39.316Z,17.52
2019-05-30T11:18:39.332Z,17.48
2019-05-30T11:19:39.277Z,17.51
2019-05-30T11:20:39.260Z,17.41
2019-05-30T11:21:39.243Z,17.46
2019-05-30T11:22:39.231Z,17.43
2019-05-30T11:23:39.201Z,17.41
2019-05-30T11:24:39.187Z,17.44
2019-05-30T11:25:39.168Z,17.44
2019-05-30T11:26:39.150Z,17.40
2019-05-30T11:27:39.129Z,17.36
2019-05-30T11:28:39.163Z,17.38
2019-05-30T11:29:39.096Z,17.44
2019-05-30T11:30:39.075Z,17.44
2019-05-30T11:31:39.055Z,17.46
2019-05-30T11:32:39.039Z,17.43
2019-05-30T11:33:39.030Z,17.34
2019-05-30T11:34:39.012Z,17.51
2019-05-30T11:35:38.979Z,17.43
2019-05-30T11:36:38.966Z,17.28
2019-05-30T11:37:38.946Z,17.41
2019-05-30T11:38:38.921Z,17.44
2019-05-30T11:39:38.914Z,17.44
2019-05-30T11:40:38.908Z,17.46
2019-05-30T11:41:38.868Z,17.43
2019-05-30T11:42:38.859Z,17.37
2019-05-30T11:43:38.833Z,17.40
2019-05-30T11:44:38.817Z,17.38
2019-05-30T11:45:38.792Z,17.37
2019-05-30T11:46:38.780Z,17.37
2019-05-30T11:47:38.757Z,17.36
2019-05-30T11:48:38.736Z,17.34
2019-05-30T11:49:38.742Z,17.43
2019-05-30T11:50:38.702Z,17.36
2019-05-30T11:51:38.687Z,17.31
2019-05-30T11:52:38.663Z,17.30
2019-05-30T11:53:38.645Z,17.37
2019-05-30T11:54:38.630Z,17.37
2019-05-30T11:55:38.616Z,17.46
2019-05-30T11:56:38.585Z,17.49
2019-05-30T11:57:38.565Z,17.43
2019-05-30T11:58:38.548Z,17.46
2019-05-30T11:59:38.530Z,17.46
2019-05-30T12:00:38.511Z,17.48
2019-05-30T12:01:38.498Z,17.48
2019-05-30T12:02:38.473Z,17.34
2019-05-30T12:03:38.454Z,17.44
2019-05-30T12:04:38.451Z,17.41
2019-05-30T12:05:38.421Z,17.41
2019-05-30T12:06:38.405Z,17.43
2019-05-30T12:07:38.385Z,17.43
2019-05-30T12:08:38.359Z,17.38
2019-05-30T12:09:38.348Z,17.43
2019-05-30T12:10:38.330Z,17.51
2019-05-30T12:11:38.310Z,17.44
2019-05-30T12:12:38.294Z,17.36
2019-05-30T12:13:38.279Z,17.37
2019-05-30T12:14:38.248Z,17.34
2019-05-30T12:15:38.234Z,17.33
2019-05-30T12:16:38.211Z,17.43
2019-05-30T12:17:38.192Z,17.36
2019-05-30T12:18:38.174Z,17.43
2019-05-30T12:19:38.153Z,17.36
2019-05-30T12:20:38.141Z,17.33
2019-05-30T12:21:38.116Z,17.33
2019-05-30T12:22:38.097Z,17.37
2019-05-30T12:23:38.083Z,17.37
2019-05-30T12:24:38.063Z,17.44
2019-05-30T12:25:38.048Z,17.28
2019-05-30T12:26:38.026Z,17.48
2019-05-30T12:27:38.010Z,17.51
2019-05-30T12:28:37.988Z,17.51
2019-05-30T12:29:37.973Z,17.38
2019-05-30T12:30:37.954Z,17.37
2019-05-30T12:31:37.932Z,17.44
2019-05-30T12:32:37.919Z,17.44
2019-05-30T12:33:37.893Z,17.48
2019-05-30T12:34:37.873Z,17.38
2019-05-30T12:35:37.861Z,17.43
2019-05-30T12:36:37.841Z,17.41
2019-05-30T12:37:53.366Z,17.54
2019-05-30T12:38:37.809Z,17.54
2019-05-30T12:39:39.338Z,17.51
2019-05-30T12:40:37.776Z,17.55
2019-05-30T12:41:37.752Z,17.58
2019-05-30T12:42:37.731Z,17.59
2019-05-30T12:43:37.709Z,17.58
2019-05-30T12:44:37.697Z,17.59
2019-05-30T12:45:37.682Z,17.59
2019-05-30T12:46:37.665Z,17.55
2019-05-30T12:47:37.636Z,17.68
2019-05-30T12:48:37.611Z,17.66
2019-05-30T12:49:37.598Z,17.62
2019-05-30T12:50:37.573Z,17.63
2019-05-30T12:51:37.561Z,17.66